Time;durP1;ratioP1;P1;durP2;ratioP2;P2;SDS_P1;SDS_P2;PMS_P1;PMS_P2;Temp;Humidity;BMP_temperature;BMP_pressure;BME280_temperature;BME280_humidity;BME280_pressure;Samples;Min_cycle;Max_cycle;Signal;HPM_P1;HPM_P2
2022/05/14 00:01:29;;;;;;;;;2.25;2.25;;;;;29.33;26.52;101777.44;5061525;28;45477;-79
2022/05/14 00:03:55;;;;;;;;;3.50;3.50;;;;;28.48;27.58;101787.72;5059673;28;46199;-79
2022/05/14 00:06:23;;;;;;;;;3.00;2.50;;;;;27.25;29.18;101784.97;5057083;28;45177;-79
2022/05/14 00:08:50;;;;;;;;;3.50;3.50;;;;;28.09;28.03;101782.69;5041471;28;45400;-79
2022/05/14 00:14:03;;;;;;;;;4.00;4.00;;;;;27.66;28.41;101769.06;5055934;28;45673;-79
2022/05/14 00:16:32;;;;;;;;;5.00;4.00;;;;;27.64;29.05;101776.56;5061273;28;45295;-79
2022/05/14 00:18:58;;;;;;;;;3.50;3.50;;;;;27.91;28.26;101775.84;5056123;28;45614;-79
2022/05/14 00:21:24;;;;;;;;;4.25;4.25;;;;;27.96;28.38;101777.94;5040775;28;45411;-78
2022/05/14 00:23:51;;;;;;;;;3.75;3.75;;;;;27.97;28.14;101782.34;5047524;28;46546;-78
2022/05/14 00:26:20;;;;;;;;;7.00;5.50;;;;;28.02;28.78;101782.63;5040919;28;45182;-79
2022/05/14 00:28:50;;;;;;;;;6.75;5.50;;;;;27.99;27.91;101777.56;5057993;28;45402;-79
2022/05/14 00:31:16;;;;;;;;;4.50;3.50;;;;;27.80;28.67;101768.19;5061015;28;45366;-79
2022/05/14 00:33:42;;;;;;;;;4.50;4.50;;;;;27.88;28.68;101773.50;5060629;28;46223;-79
2022/05/14 00:36:08;;;;;;;;;5.00;4.00;;;;;27.82;28.73;101792.44;5040674;28;45349;-79
2022/05/14 00:38:33;;;;;;;;;7.50;4.50;;;;;28.33;27.77;101771.47;5039603;28;45448;-79
2022/05/14 00:41:02;;;;;;;;;6.50;5.50;;;;;27.74;28.76;101771.66;5040792;28;45564;-79
2022/05/14 00:43:32;;;;;;;;;5.75;5.75;;;;;27.60;28.53;101767.09;5040861;28;45418;-79
2022/05/14 00:46:15;;;;;;;;;5.00;5.00;;;;;27.61;28.92;101773.38;5057960;28;45517;-79
2022/05/14 00:48:43;;;;;;;;;4.00;4.00;;;;;27.67;28.60;101769.91;5059477;28;45362;-79
2022/05/14 00:51:15;;;;;;;;;4.75;4.00;;;;;27.14;29.74;101767.31;5060520;28;45484;-79
2022/05/14 00:53:45;;;;;;;;;4.25;4.25;;;;;27.15;29.05;101769.00;5059077;28;47297;-79
2022/05/14 00:56:18;;;;;;;;;8.75;4.50;;;;;26.52;30.40;101763.19;5057954;28;45729;-79
2022/05/14 00:58:52;;;;;;;;;8.00;5.50;;;;;27.06;29.47;101764.69;5059141;28;45444;-78
2022/05/14 01:01:17;;;;;;;;;5.25;5.25;;;;;26.77;30.24;101768.19;5041743;28;45354;-79
2022/05/14 01:03:43;;;;;;;;;6.00;4.75;;;;;26.80;29.93;101772.41;5040359;28;45600;-79
2022/05/14 01:06:15;;;;;;;;;4.25;3.50;;;;;26.75;29.83;101755.88;5038737;28;45674;-79
2022/05/14 01:08:42;;;;;;;;;6.00;4.00;;;;;26.71;29.83;101760.78;5056341;28;45486;-78
2022/05/14 01:11:08;;;;;;;;;6.00;3.00;;;;;26.45;30.52;101755.78;5055773;28;45540;-79
2022/05/14 01:13:33;;;;;;;;;7.25;4.00;;;;;27.06;29.31;101747.56;5039470;28;46451;-78
2022/05/14 01:16:01;;;;;;;;;8.25;4.75;;;;;26.51;30.13;101772.31;5039999;28;45222;-79
2022/05/14 01:18:29;;;;;;;;;6.00;4.00;;;;;26.15;30.49;101766.66;5040475;28;45449;-79
2022/05/14 01:21:06;;;;;;;;;4.25;4.25;;;;;25.55;31.21;101757.38;5040321;28;45471;-79
2022/05/14 01:26:42;;;;;;;;;5.00;5.00;;;;;25.60;31.79;101759.56;5039986;28;45410;-79
2022/05/14 01:29:11;;;;;;;;;7.25;4.50;;;;;25.50;31.72;101765.16;5038887;28;45328;-78
2022/05/14 01:31:38;;;;;;;;;6.50;5.25;;;;;25.65;31.47;101755.31;5039966;28;45545;-79
2022/05/14 01:34:08;;;;;;;;;9.50;6.00;;;;;25.28;32.00;101758.69;5056623;28;48615;-78
2022/05/14 01:36:36;;;;;;;;;8.50;7.25;;;;;26.30;30.86;101754.91;5038323;28;45592;-78
2022/05/14 01:39:03;;;;;;;;;6.00;5.00;;;;;25.82;31.44;101742.53;5055710;28;45362;-79
2022/05/14 01:41:28;;;;;;;;;3.00;1.25;;;;;26.11;30.76;101749.97;5039841;28;45245;-78
2022/05/14 01:43:54;;;;;;;;;4.00;2.75;;;;;25.92;31.12;101742.31;5042969;28;45331;-78
2022/05/14 01:46:20;;;;;;;;;3.50;3.00;;;;;25.66;31.48;101746.19;5040343;28;45216;-79
2022/05/14 01:48:46;;;;;;;;;3.00;3.00;;;;;25.56;31.61;101747.41;5039673;28;45255;-79
2022/05/14 01:51:12;;;;;;;;;4.00;4.00;;;;;25.89;31.15;101738.09;5039574;28;45393;-78
2022/05/14 01:53:38;;;;;;;;;4.75;3.00;;;;;25.82;31.26;101739.00;5039292;28;45405;-78
2022/05/14 01:56:04;;;;;;;;;5.75;3.50;;;;;25.89;31.06;101739.94;5039809;28;45402;-78
2022/05/14 01:58:38;;;;;;;;;3.00;3.00;;;;;25.86;31.52;101743.03;5055892;28;45449;-78
2022/05/14 02:01:30;;;;;;;;;4.00;4.00;;;;;25.84;31.26;101742.38;5043094;28;45658;-78
2022/05/14 02:04:06;;;;;;;;;7.00;3.00;;;;;25.73;31.74;101740.91;5039396;28;45495;-78
2022/05/14 02:06:32;;;;;;;;;2.00;2.00;;;;;25.87;31.15;101739.28;5037977;28;45466;-78
2022/05/14 02:08:58;;;;;;;;;2.25;2.25;;;;;25.70;31.34;101725.00;5039874;28;45333;-79
2022/05/14 02:11:26;;;;;;;;;6.25;3.00;;;;;26.14;30.58;101730.63;5039510;28;45438;-78
2022/05/14 02:13:52;;;;;;;;;4.25;3.25;;;;;26.42;30.41;101739.06;5039242;28;46730;-78
2022/05/14 02:16:18;;;;;;;;;2.75;2.75;;;;;26.77;30.00;101732.94;5039689;28;45234;-78
2022/05/14 02:18:44;;;;;;;;;3.00;3.00;;;;;27.80;29.28;101724.75;5039409;28;45229;-79
2022/05/14 02:21:11;;;;;;;;;5.00;2.00;;;;;27.52;29.56;101738.19;5054939;28;45335;-79
2022/05/14 02:23:38;;;;;;;;;3.00;3.00;;;;;26.95;29.52;101729.09;5039126;28;46476;-79
2022/05/14 02:26:08;;;;;;;;;3.00;2.00;;;;;26.34;30.03;101731.00;5041627;28;45305;-79
2022/05/14 02:28:37;;;;;;;;;5.25;3.00;;;;;26.22;30.65;101729.75;5042965;28;45271;-79
2022/05/14 02:31:03;;;;;;;;;6.00;3.00;;;;;26.17;30.52;101729.44;5042976;28;45545;-78
2022/05/14 02:33:31;;;;;;;;;3.75;2.50;;;;;26.23;30.48;101731.41;5042845;28;45448;-78
2022/05/14 02:35:57;;;;;;;;;2.00;2.00;;;;;26.14;30.38;101727.06;5042943;28;45346;-78
2022/05/14 02:38:22;;;;;;;;;2.00;2.00;;;;;26.04;30.58;101732.72;5066565;28;45327;-78
2022/05/14 02:40:48;;;;;;;;;5.50;2.00;;;;;25.91;30.68;101724.38;5041535;28;45513;-78
2022/05/14 02:43:14;;;;;;;;;3.00;2.25;;;;;26.04;30.38;101732.72;5047263;28;46088;-78
2022/05/14 02:45:39;;;;;;;;;4.00;2.25;;;;;25.96;30.78;101733.63;5052523;28;45318;-78
2022/05/14 02:48:06;;;;;;;;;2.75;2.50;;;;;26.03;30.27;101744.59;5042696;28;45687;-78
2022/05/14 02:50:31;;;;;;;;;2.00;2.00;;;;;26.06;30.20;101728.81;5057627;28;45452;-78
2022/05/14 02:52:57;;;;;;;;;2.50;2.50;;;;;25.93;30.65;101734.00;5042323;28;46376;-78
2022/05/14 02:55:30;;;;;;;;;6.50;3.00;;;;;25.99;31.18;101741.41;5042232;28;45362;-78
2022/05/14 02:57:55;;;;;;;;;4.00;3.75;;;;;26.21;30.57;101739.72;5041538;28;45350;-78
2022/05/14 03:00:21;;;;;;;;;4.25;3.00;;;;;26.19;30.71;101738.22;5042270;28;45451;-78
2022/05/14 03:02:47;;;;;;;;;4.00;3.50;;;;;25.80;31.13;101739.16;5057772;28;46001;-78
2022/05/14 03:05:15;;;;;;;;;4.00;3.25;;;;;25.80;30.41;101747.28;5042006;28;45547;-78
2022/05/14 03:07:41;;;;;;;;;5.00;2.00;;;;;25.81;31.13;101750.84;5042534;28;45476;-79
2022/05/14 03:10:08;;;;;;;;;3.00;3.00;;;;;25.74;31.53;101744.47;5060843;28;45667;-78
2022/05/14 03:12:33;;;;;;;;;4.25;2.75;;;;;25.75;31.40;101743.44;5059426;28;48328;-78
2022/05/14 03:15:00;;;;;;;;;3.00;3.00;;;;;25.75;31.31;101748.84;5061360;28;45337;-78
2022/05/14 03:17:26;;;;;;;;;4.00;2.00;;;;;25.77;31.30;101744.91;5061980;28;45493;-78
2022/05/14 03:19:52;;;;;;;;;3.25;2.25;;;;;26.42;30.39;101744.47;5060629;28;45651;-78
2022/05/14 03:22:18;;;;;;;;;3.00;2.75;;;;;25.81;31.20;101729.19;5049758;28;46499;-78
2022/05/14 03:24:44;;;;;;;;;2.00;2.00;;;;;25.93;31.24;101725.91;5040540;28;45468;-79
2022/05/14 03:27:12;;;;;;;;;3.25;3.00;;;;;25.98;30.62;101728.03;5042151;28;45375;-78
2022/05/14 03:29:39;;;;;;;;;2.00;2.00;;;;;25.91;30.83;101733.34;5041801;28;45324;-78
2022/05/14 03:32:05;;;;;;;;;3.50;2.00;;;;;25.80;30.96;101738.31;5041905;28;46211;-78
2022/05/14 03:34:32;;;;;;;;;4.25;3.00;;;;;25.81;30.88;101735.44;5041857;28;45216;-78
2022/05/14 03:36:57;;;;;;;;;4.50;3.50;;;;;25.88;30.73;101736.41;5041126;28;45507;-78
2022/05/14 03:39:23;;;;;;;;;1.75;1.75;;;;;26.56;29.92;101732.84;5041816;28;45395;-77
2022/05/14 03:41:48;;;;;;;;;2.25;2.00;;;;;25.88;31.03;101730.16;5041701;28;45466;-78
2022/05/14 03:44:14;;;;;;;;;3.00;3.00;;;;;25.23;31.64;101736.72;5047587;28;45361;-78
2022/05/14 03:46:41;;;;;;;;;2.00;2.00;;;;;25.25;31.66;101728.44;5047782;28;45315;-78
2022/05/14 03:49:06;;;;;;;;;3.00;1.00;;;;;25.17;31.79;101739.28;5041408;28;45565;-78
2022/05/14 03:51:32;;;;;;;;;2.50;2.25;;;;;24.94;31.72;101726.53;5041036;28;45905;-78
2022/05/14 03:53:58;;;;;;;;;1.00;1.00;;;;;25.22;31.87;101732.31;5041564;28;45374;-78
2022/05/14 03:56:24;;;;;;;;;3.00;1.50;;;;;25.50;31.17;101739.97;5057101;28;45315;-78
2022/05/14 03:58:49;;;;;;;;;2.00;2.00;;;;;25.30;31.63;101736.88;5049976;28;45423;-78
2022/05/14 04:01:15;;;;;;;;;4.00;2.00;;;;;24.99;32.14;101739.50;5043901;28;47642;-78
2022/05/14 04:03:41;;;;;;;;;2.25;2.00;;;;;24.97;32.31;101733.44;5039898;28;46167;-78
2022/05/14 04:06:07;;;;;;;;;2.00;1.25;;;;;24.89;31.98;101742.38;5039759;28;45396;-78
2022/05/14 04:08:33;;;;;;;;;2.00;1.50;;;;;24.54;32.69;101729.28;5041429;28;45322;-77
2022/05/14 04:10:58;;;;;;;;;3.00;2.00;;;;;24.37;32.52;101730.31;5054113;28;46271;-77
2022/05/14 04:13:25;;;;;;;;;2.00;2.00;;;;;24.36;33.15;101731.31;5059226;28;45719;-78
2022/05/14 04:15:51;;;;;;;;;2.25;2.25;;;;;25.27;32.04;101729.09;5061363;28;45324;-78
2022/05/14 04:18:20;;;;;;;;;4.00;2.00;;;;;25.26;32.02;101743.63;5061393;28;45568;-78
2022/05/14 04:20:46;;;;;;;;;2.50;2.00;;;;;25.66;31.51;101748.06;5059545;28;47176;-78
2022/05/14 04:23:12;;;;;;;;;4.75;2.50;;;;;25.94;30.94;101729.44;5047195;28;45457;-77
2022/05/14 04:25:37;;;;;;;;;5.00;1.50;;;;;26.25;30.57;101740.19;5041150;28;45472;-77
2022/05/14 04:28:03;;;;;;;;;2.00;2.00;;;;;25.53;31.48;101747.75;5041244;28;45457;-78
2022/05/14 04:30:28;;;;;;;;;1.75;1.50;;;;;24.65;32.78;101736.19;5040736;28;46501;-78
2022/05/14 04:32:53;;;;;;;;;4.00;2.00;;;;;24.51;32.98;101733.16;5041038;28;45429;-78
2022/05/14 04:35:20;;;;;;;;;2.75;2.25;;;;;24.31;33.35;101744.47;5039764;28;45488;-78
2022/05/14 04:37:45;;;;;;;;;3.00;2.00;;;;;24.86;32.49;101749.97;5040977;28;45504;-78
2022/05/14 04:40:12;;;;;;;;;2.50;1.00;;;;;24.68;32.94;101736.66;5040950;28;45328;-78
2022/05/14 04:42:38;;;;;;;;;4.00;2.25;;;;;24.38;33.44;101743.63;5041037;28;45241;-78
2022/05/14 04:45:10;;;;;;;;;2.25;2.25;;;;;24.36;33.04;101737.56;5053862;28;45393;-78
2022/05/14 04:47:38;;;;;;;;;3.00;2.00;;;;;24.41;33.26;101758.63;5042103;28;45308;-78
2022/05/14 04:50:06;;;;;;;;;2.00;1.00;;;;;24.08;33.73;101750.50;5037705;28;47329;-78
2022/05/14 04:52:31;;;;;;;;;4.50;2.00;;;;;24.40;33.46;101746.19;5040636;28;45616;-78
2022/05/14 04:54:57;;;;;;;;;4.00;2.00;;;;;24.68;32.84;101747.47;5040775;28;45446;-78
2022/05/14 04:57:22;;;;;;;;;2.00;2.00;;;;;24.60;32.95;101740.22;5040524;28;45363;-78
2022/05/14 04:59:47;;;;;;;;;1.00;1.00;;;;;24.72;32.70;101758.78;5040666;28;46159;-78
2022/05/14 05:04:57;;;;;;;;;2.00;2.00;;;;;24.55;32.64;101742.59;5040294;28;45593;-78
2022/05/14 05:07:22;;;;;;;;;2.75;2.00;;;;;25.02;32.16;101743.72;5040573;28;45453;-78
2022/05/14 05:09:48;;;;;;;;;1.50;1.50;;;;;25.27;32.06;101742.63;5048395;28;45479;-78
2022/05/14 05:12:14;;;;;;;;;2.50;1.00;;;;;25.20;32.54;101737.09;5054742;28;45558;-78
2022/05/14 05:14:41;;;;;;;;;4.00;2.00;;;;;25.98;31.28;101747.84;5042444;28;45416;-78
2022/05/14 05:17:07;;;;;;;;;4.00;2.50;;;;;25.29;31.23;101746.00;5058915;28;46066;-78
2022/05/14 05:19:33;;;;;;;;;1.25;1.25;;;;;25.38;31.80;101736.00;5058961;28;45495;-78
2022/05/14 05:21:59;;;;;;;;;2.50;2.50;;;;;24.85;32.46;101754.56;5056475;28;45181;-78
2022/05/14 05:24:24;;;;;;;;;2.00;2.00;;;;;25.90;30.96;101745.19;5059762;28;45622;-78
2022/05/14 05:26:50;;;;;;;;;1.25;1.25;;;;;25.72;31.30;101755.44;5046887;28;45611;-78
2022/05/14 05:29:15;;;;;;;;;2.25;1.00;;;;;26.29;30.39;101757.81;5060186;28;45234;-78
2022/05/14 05:31:41;;;;;;;;;1.75;1.75;;;;;26.64;30.20;101767.13;5058351;28;45489;-78
2022/05/14 05:34:07;;;;;;;;;3.50;1.50;;;;;25.91;30.84;101752.28;5055022;28;45516;-78
2022/05/14 05:36:33;;;;;;;;;1.75;1.75;;;;;26.36;30.61;101756.88;5039859;28;45568;-78
2022/05/14 05:38:58;;;;;;;;;3.00;2.00;;;;;25.91;31.06;101749.59;5047431;28;45503;-77
2022/05/14 05:41:24;;;;;;;;;5.00;3.00;;;;;26.05;31.03;101746.09;5042293;28;45603;-78
2022/05/14 05:43:49;;;;;;;;;2.75;2.00;;;;;26.37;30.86;101755.88;5055173;28;45427;-78
2022/05/14 05:46:15;;;;;;;;;3.75;3.00;;;;;27.03;29.23;101747.97;5059907;28;45423;-78
2022/05/14 05:48:43;;;;;;;;;2.00;2.00;;;;;26.95;29.34;101745.34;5058062;28;46351;-78
2022/05/14 05:51:08;;;;;;;;;2.00;2.00;;;;;26.71;30.31;101758.09;5055222;28;45468;-78
2022/05/14 05:59:07;;;;;;;;;5.00;3.00;;;;;27.07;29.86;101765.53;5052320;28;45475;-78
2022/05/14 06:01:32;;;;;;;;;3.00;3.00;;;;;27.24;29.25;101760.75;5057814;28;45459;-78
2022/05/14 06:04:10;;;;;;;;;6.50;3.00;;;;;27.17;29.42;101766.09;5070538;28;45469;-78
2022/05/14 06:06:37;;;;;;;;;3.00;3.00;;;;;27.67;29.27;101773.47;5062009;27;45400;-77
2022/05/14 06:09:05;;;;;;;;;3.00;1.25;;;;;28.04;28.64;101764.28;5059028;28;46265;-77
2022/05/14 06:11:45;;;;;;;;;2.50;2.50;;;;;28.04;28.57;101767.00;5065050;28;45240;-78
2022/05/14 06:14:15;;;;;;;;;4.00;3.25;;;;;27.40;29.32;101761.41;5058795;27;45582;-77
2022/05/14 06:16:43;;;;;;;;;5.50;3.00;;;;;27.16;29.27;101775.25;5057504;28;45340;-78
2022/05/14 06:19:12;;;;;;;;;3.50;3.00;;;;;27.71;29.40;101782.91;5059342;28;46267;-78
2022/05/14 06:21:38;;;;;;;;;5.75;3.50;;;;;28.56;28.67;101779.41;5065844;28;45414;-78
2022/05/14 06:24:13;;;;;;;;;6.00;4.00;;;;;27.35;29.64;101780.13;5058644;28;45478;-78
2022/05/14 06:26:41;;;;;;;;;4.00;4.00;;;;;29.87;26.60;101782.06;5056915;28;45314;-79
2022/05/14 06:29:16;;;;;;;;;4.00;4.00;;;;;27.98;28.97;101772.34;5059168;28;45433;-78
2022/05/14 06:31:42;;;;;;;;;8.00;4.75;;;;;27.59;29.50;101770.03;5058584;28;45927;-78
2022/05/14 06:34:07;;;;;;;;;4.00;2.50;;;;;29.68;26.32;101777.44;5044319;28;45381;-77
2022/05/14 06:36:33;;;;;;;;;4.00;3.00;;;;;28.05;28.66;101786.81;5037686;28;45422;-77
2022/05/14 06:39:00;;;;;;;;;4.00;4.00;;;;;27.72;28.98;101783.75;5050674;28;46070;-77
2022/05/14 06:41:25;;;;;;;;;4.00;3.00;;;;;27.73;29.61;101793.56;5039215;28;45446;-77
2022/05/14 06:43:51;;;;;;;;;8.00;4.75;;;;;27.84;29.05;101785.78;5046485;28;45680;-77
2022/05/14 06:46:16;;;;;;;;;7.00;4.00;;;;;28.23;28.98;101782.66;5037980;28;45314;-76
2022/05/14 06:48:42;;;;;;;;;4.75;4.75;;;;;28.47;28.92;101783.31;5039055;28;45306;-77
2022/05/14 06:51:14;;;;;;;;;6.25;5.00;;;;;28.27;28.28;101777.69;5058861;28;45607;-77
2022/05/14 06:53:41;;;;;;;;;4.25;4.25;;;;;28.54;28.53;101781.47;5074403;27;45513;-77
2022/05/14 06:56:08;;;;;;;;;9.50;5.00;;;;;28.22;28.67;101780.16;5067765;28;45458;-77
2022/05/14 06:58:39;;;;;;;;;6.50;4.75;;;;;28.53;28.76;101774.38;5044958;28;45588;-77
2022/05/14 07:01:07;;;;;;;;;7.75;5.00;;;;;27.66;29.60;101779.94;5045809;28;45253;-77
2022/05/14 07:06:37;;;;;;;;;5.25;5.00;;;;;28.00;29.58;101779.25;5049764;28;45313;-77
2022/05/14 07:09:05;;;;;;;;;7.00;4.25;;;;;29.79;26.90;101793.16;5057671;28;47312;-77
2022/05/14 07:11:30;;;;;;;;;5.00;4.50;;;;;28.21;29.34;101790.19;5057493;28;45370;-77
2022/05/14 07:13:56;;;;;;;;;5.50;4.00;;;;;28.55;28.55;101791.31;5046614;28;45449;-77
2022/05/14 07:16:21;;;;;;;;;4.50;4.25;;;;;28.61;28.60;101783.22;5042246;28;45493;-77
2022/05/14 07:18:46;;;;;;;;;2.75;2.50;;;;;28.85;28.69;101786.56;5040674;28;47492;-77
2022/05/14 07:21:12;;;;;;;;;2.75;2.75;;;;;28.67;28.63;101778.88;5040586;28;45494;-77
2022/05/14 07:23:38;;;;;;;;;3.00;3.00;;;;;29.96;27.48;101780.03;5042148;28;45521;-77
2022/05/14 07:26:05;;;;;;;;;1.75;1.75;;;;;30.77;27.35;101784.34;5042097;28;45443;-77
2022/05/14 07:28:30;;;;;;;;;5.00;4.00;;;;;32.64;26.21;101767.72;5042311;28;45625;-77
2022/05/14 07:30:57;;;;;;;;;3.25;1.50;;;;;35.23;24.69;101773.81;5041955;28;45409;-77
2022/05/14 07:33:22;;;;;;;;;3.50;2.00;;;;;37.52;23.24;101769.41;5055494;28;45473;-77
2022/05/14 07:35:48;;;;;;;;;4.25;3.00;;;;;39.02;22.49;101762.81;5041884;28;45228;-77
2022/05/14 07:38:14;;;;;;;;;6.50;3.00;;;;;40.05;21.58;101767.59;5057268;28;47262;-77
2022/05/14 07:40:39;;;;;;;;;6.00;3.00;;;;;41.79;19.37;101753.88;5041931;28;45308;-78
2022/05/14 07:43:18;;;;;;;;;4.25;3.50;;;;;43.21;18.51;101763.66;5057715;28;46536;-77
2022/05/14 07:46:31;;;;;;;;;;;;;;;;;;;;;
2022/05/14 07:56:43;;;;;;;;;;;;;;;;;;;;;
2022/05/14 08:31:03;;;;;;;;;;;;;;;;;;;;;
2022/05/14 12:34:38;;;;;;;;;2.75;2.75;;;;;38.68;15.74;101584.78;4900991;29;45512;-77
2022/05/14 12:37:16;;;;;;;;;3.50;3.00;;;;;38.91;16.08;101579.59;4901503;29;45469;-77
2022/05/14 12:39:43;;;;;;;;;3.00;3.00;;;;;39.57;15.13;101576.97;4932831;28;46429;-77
2022/05/14 12:42:10;;;;;;;;;2.50;2.50;;;;;39.29;15.03;101577.47;4980922;28;45362;-76
2022/05/14 12:45:03;;;;;;;;;7.75;4.25;;;;;39.08;15.71;101571.09;4981178;28;45380;-77
2022/05/14 12:48:16;;;;;;;;;;;;;;;;;;;;;
2022/05/14 12:54:18;;;;;;;;;;;;;;;;;;;;;
2022/05/14 13:06:47;;;;;;;;;2.25;2.25;;;;;38.60;15.92;101550.22;4969985;28;45545;-77
2022/05/14 15:19:23;;;;;;;;;5.75;3.75;;;;;38.28;16.62;101419.81;5845500;23;47227;-77
